Terminal Aerodrome Forecast
Issued by NWS

Home | Current Version | Previous Version | Graphics & Text | Print | Product List | Glossary On
Versions: 1 2 3 4 5 6 7 8 9 10 11 12 13 14 15 16 17 18 19 20 21 22 23 24 25 26 27 28 29 30 31 32 33 34 35 36 37 38 39 40
000
FTUS43 KLOT 240900 AAB
TAFORD
TAF AMD
KORD 240939Z 2410/2512 24008KT 6SM -RA BR OVC006
      TEMPO 2410/2411 3SM RA BR BKN006 OVC010
     FM241400 27015G22KT 5SM -RA BR OVC006
     FM241700 27020G30KT 4SM -RASN OVC007
     FM241900 25024G33KT 3SM -SN OVC009
     FM242200 25023G32KT 5SM -SN SCT010 OVC020
     FM250100 25017G27KT P6SM -SN OVC025
     FM250600 26012G18KT P6SM OVC025=

USA.gov is the U.S. government's official web portal to all federal, state and local government web resources and services.